KRAP

Rapid City Regional Airport

Rapid City, South Dakota, USA
METAR KRAP 162152Z 16007KT 10SM CLR 08/M03 A3016 RMK AO2 SLP236 T00831028
Observed Flight Rules
Dec-16 @ 21:52 UTC (11 minutes ago) Visual Flight Rules
Wind Visibility Clouds
160° at 7 knots 10 miles
  • Clear skies
Temperatures Readings
Current 8°C / 46°F
Dewpoint -3°C / 27°F
Humidity 46%
Altimeter 30.16" Hg
Pressure 1023.6 hPa
Elevation 965
METAR KRAP 162152Z 16007KT 10SM CLR 08/M03 A3016 RMK AO2 SLP236 T00831028
Observed Flight Rules
Dec-16 @ 21:52 UTC
(11 minutes ago)
VFR
Wind Visibility
160° at 7 knots 10 miles
Clouds
  • Clear skies
Temperature Dewpoint
8°C / 46°F -3°C / 27°F
Humidity Altimeter Pressure
46% 30.16" Hg 1023.6 hPa